Weather History for KMYP - June, 2013

Change the Weather History Date:

Monday, June 17, 2013

  Actual Average (KGUC) Record (KGUC)
Temperature  
Mean Temperature 50 °F -  
Max Temperature 60 °F 72 °F 82 °F (2002)
Min Temperature 41 °F 37 °F 33 °F (2014)
Degree Days  
Heating Degree Days 14    
Moisture  
Dew Point 27 °F    
Average Humidity 47    
Maximum Humidity 76    
Minimum Humidity 17    
Precipitation  
Precipitation 0.00 in - - ()
Sea Level Pressure  
Sea Level Pressure 30.68 in    
Wind  
Wind Speed 14 mph (SW)    
Max Wind Speed 28 mph    
Max Gust Speed 39 mph    
Visibility 10 miles    
Events Thunderstorm    
Averages and records for this station are not official NWS values.
T = Trace of Precipitation, MM = Missing Value Source: NWS Daily Summary

Daily Weather History Graph

Daily Weather History Graph

Search for Another Location

Airport or City:

Trip Planner

Search our weather history database for the weather conditions in past years. The results will help you decide how hot, cold, wet, or windy it might be!

Date:

Astronomy

Jun. 17, 2013 Rise Set
Actual Time 5:40 AM MDT 8:31 PM MDT
Civil Twilight 5:09 AM MDT 9:03 PM MDT
Nautical Twilight 4:29 AM MDT 9:43 PM MDT
Astronomical Twilight 3:43 AM MDT 10:29 PM MDT
Moon 2:17 PM MDT (6/17) 1:13 AM MDT (6/17)
Length of Visible Light 15h 54m
Length of Day
14h 50m
First Quarter, 61% of the Moon is Illuminated
Jun 17
First Quarter
Jun 23
Full
Jun 29
Last Quarter
Jul 8
New
Jul 15
First Quarter

Hourly Weather History & Observations

Time (MDT) Temp. Windchill Dew Point Humidity Pressure Visibility Wind Dir Wind Speed Gust Speed Precip Events Conditions
12:14 AM 44.6 °F 39.2 °F 30.2 °F 57% 30.70 in 10.0 mi West 10.4 mph - N/A   Scattered Clouds
12:34 AM 42.8 °F 33.5 °F 30.2 °F 61% 30.70 in 10.0 mi West 23.0 mph - N/A   Mostly Cloudy
12:54 AM 41.0 °F 35.2 °F 32.0 °F 70% 30.69 in 10.0 mi WNW 9.2 mph 19.6 mph N/A   Overcast
1:14 AM 44.6 °F 39.2 °F 30.2 °F 57% 30.68 in 10.0 mi West 10.4 mph - N/A   Overcast
1:34 AM 44.6 °F 38.1 °F 30.2 °F 57% 30.68 in 10.0 mi West 13.8 mph - N/A   Mostly Cloudy
1:54 AM 44.6 °F 40.2 °F 28.4 °F 53% 30.68 in 10.0 mi West 8.1 mph - N/A   Scattered Clouds
2:14 AM 44.6 °F 37.8 °F 28.4 °F 53% 30.68 in 10.0 mi West 15.0 mph - N/A   Mostly Cloudy
2:34 AM 42.8 °F 32.9 °F 30.2 °F 61% 30.68 in 10.0 mi West 26.5 mph - N/A   Overcast
2:54 AM 41.0 °F 35.2 °F 32.0 °F 70% 30.69 in 10.0 mi SW 9.2 mph 25.3 mph N/A   Overcast
3:14 AM 44.6 °F 38.1 °F 28.4 °F 53% 30.67 in 10.0 mi West 13.8 mph 18.4 mph N/A   Mostly Cloudy
3:34 AM 42.8 °F 36.6 °F 28.4 °F 57% 30.67 in 10.0 mi WSW 11.5 mph - N/A   Clear
3:54 AM 42.8 °F 40.1 °F 28.4 °F 57% 30.68 in 10.0 mi NNW 4.6 mph - N/A   Scattered Clouds
4:14 AM 44.6 °F 41.4 °F 28.4 °F 53% 30.67 in 10.0 mi SSW 5.8 mph - N/A   Clear
4:34 AM 42.8 °F 39.3 °F 28.4 °F 57% 30.67 in 10.0 mi SW 5.8 mph - N/A   Clear
4:54 AM 42.8 °F 37.0 °F 28.4 °F 57% 30.67 in 10.0 mi SSW 10.4 mph - N/A   Clear
5:14 AM 44.6 °F 38.8 °F 28.4 °F 53% 30.67 in 10.0 mi SSW 11.5 mph - N/A   Clear
5:34 AM 44.6 °F 38.1 °F 28.4 °F 53% 30.67 in 10.0 mi SSW 13.8 mph - N/A   Clear
5:54 AM 42.8 °F 35.8 °F 30.2 °F 61% 30.67 in 10.0 mi SSW 13.8 mph - N/A   Clear
6:14 AM 42.8 °F 36.2 °F 30.2 °F 61% 30.67 in 10.0 mi SSW 12.7 mph - N/A   Clear
6:34 AM 42.8 °F 37.5 °F 30.2 °F 61% 30.68 in 10.0 mi SSW 9.2 mph - N/A   Clear
6:54 AM 42.8 °F 36.6 °F 30.2 °F 61% 30.68 in 10.0 mi SSW 11.5 mph - N/A   Clear
7:14 AM 44.6 °F 39.7 °F 28.4 °F 53% 30.69 in 10.0 mi SSW 9.2 mph - N/A   Clear
7:34 AM 44.6 °F 39.7 °F 28.4 °F 53% 30.69 in 10.0 mi SSW 9.2 mph - N/A   Clear
7:54 AM 46.4 °F 41.5 °F 28.4 °F 50% 30.69 in 10.0 mi SSW 10.4 mph - N/A   Clear
8:14 AM 46.4 °F 41.1 °F 28.4 °F 50% 30.70 in 10.0 mi South 11.5 mph - N/A   Clear
8:34 AM 48.2 °F - 30.2 °F 50% 30.70 in 10.0 mi SSW 6.9 mph - N/A   Clear
8:54 AM 48.2 °F - 28.4 °F 46% 30.71 in 10.0 mi South 6.9 mph - N/A   Clear
9:14 AM 50.0 °F - 28.4 °F 43% 30.71 in 10.0 mi South 4.6 mph - N/A   Scattered Clouds
9:34 AM 51.8 °F - 26.6 °F 38% 30.71 in 10.0 mi SW 8.1 mph - N/A   Mostly Cloudy
9:54 AM 53.6 °F - 30.2 °F 41% 30.71 in 10.0 mi WSW 12.7 mph 17.3 mph N/A   Scattered Clouds
10:14 AM 53.6 °F - 26.6 °F 35% 30.71 in 10.0 mi WSW 13.8 mph 17.3 mph N/A   Scattered Clouds
10:34 AM 53.6 °F - 23.0 °F 30% 30.71 in 10.0 mi SW 9.2 mph 18.4 mph N/A   Scattered Clouds
10:54 AM 53.6 °F - 24.8 °F 33% 30.71 in 10.0 mi West 9.2 mph 20.7 mph N/A   Scattered Clouds
11:14 AM 53.6 °F - 19.4 °F 26% 30.71 in 10.0 mi SW 23.0 mph 27.6 mph N/A   Scattered Clouds
11:34 AM 55.4 °F - 21.2 °F 26% 30.71 in 10.0 mi WSW 18.4 mph 24.2 mph N/A Thunderstorm Scattered Clouds
11:54 AM 55.4 °F - 19.4 °F 25% 30.71 in 10.0 mi West 15.0 mph 29.9 mph N/A Thunderstorm Clear
12:14 PM 57.2 °F - 21.2 °F 25% 30.70 in 10.0 mi West 11.5 mph 21.9 mph N/A   Scattered Clouds
12:34 PM 59.0 °F - 17.6 °F 20% 30.70 in 10.0 mi West 23.0 mph 29.9 mph N/A   Clear
12:54 PM 57.2 °F - 17.6 °F 21% 30.70 in 10.0 mi West 11.5 mph 27.6 mph N/A Thunderstorm Clear
1:14 PM 59.0 °F - 14.0 °F 17% 30.69 in 10.0 mi WSW 12.7 mph 26.5 mph N/A   Clear
1:34 PM 59.0 °F - 17.6 °F 20% 30.69 in 10.0 mi WSW 24.2 mph 29.9 mph N/A   Clear
1:54 PM 59.0 °F - 19.4 °F 22% 30.68 in 10.0 mi West 9.2 mph 26.5 mph N/A   Clear
2:14 PM 60.8 °F - 19.4 °F 20% 30.68 in 10.0 mi West 19.6 mph 26.5 mph N/A   Clear
2:34 PM 59.0 °F - 19.4 °F 22% 30.68 in 10.0 mi West 17.3 mph 25.3 mph N/A   Mostly Cloudy
2:54 PM 59.0 °F - 21.2 °F 23% 30.67 in 10.0 mi SW 17.3 mph 23.0 mph N/A   Scattered Clouds
3:14 PM 59.0 °F - 19.4 °F 22% 30.67 in 10.0 mi West 16.1 mph 24.2 mph N/A   Mostly Cloudy
3:34 PM 59.0 °F - 23.0 °F 25% 30.66 in 10.0 mi SSW 17.3 mph 33.4 mph N/A   Overcast
3:54 PM 53.6 °F - 21.2 °F 28% 30.65 in 10.0 mi SSW 27.6 mph 31.1 mph N/A   Overcast
4:14 PM 55.4 °F - 24.8 °F 31% 30.65 in 10.0 mi SSW 24.2 mph 32.2 mph N/A   Overcast
4:34 PM 53.6 °F - 24.8 °F 33% 30.65 in 10.0 mi SSW 24.2 mph - N/A   Mostly Cloudy
4:54 PM 55.4 °F - 26.6 °F 33% 30.65 in 10.0 mi SSW 20.7 mph 29.9 mph N/A   Mostly Cloudy
5:14 PM 53.6 °F - 24.8 °F 33% 30.65 in 10.0 mi SSW 24.2 mph 33.4 mph N/A   Mostly Cloudy
5:34 PM 53.6 °F - 26.6 °F 35% 30.66 in 10.0 mi SSW 21.9 mph - N/A   Overcast
5:54 PM 51.8 °F - 24.8 °F 35% 30.66 in 10.0 mi WSW 24.2 mph 39.1 mph N/A Thunderstorm Scattered Clouds
6:14 PM 51.8 °F - 26.6 °F 38% 30.66 in 10.0 mi WSW 15.0 mph 24.2 mph N/A   Mostly Cloudy
6:34 PM 51.8 °F - 26.6 °F 38% 30.66 in 10.0 mi WSW 13.8 mph - N/A   Overcast
6:54 PM 51.8 °F - 28.4 °F 41% 30.67 in 10.0 mi WSW 11.5 mph - N/A Thunderstorm Overcast
7:14 PM 51.8 °F - 28.4 °F 41% 30.68 in 10.0 mi WSW 10.4 mph - N/A   Scattered Clouds
7:34 PM 50.0 °F - 26.6 °F 40% 30.68 in 10.0 mi WSW 10.4 mph 13.8 mph N/A   Mostly Cloudy
7:54 PM 50.0 °F - 32.0 °F 50% 30.68 in 10.0 mi Calm Calm - N/A   Overcast
8:14 PM 46.4 °F 42.9 °F 32.0 °F 57% 30.67 in 10.0 mi East 6.9 mph - N/A   Mostly Cloudy
8:34 PM 44.6 °F 37.2 °F 33.8 °F 66% 30.66 in 10.0 mi NE 17.3 mph - N/A   Scattered Clouds
8:54 PM 44.6 °F 36.9 °F 33.8 °F 66% 30.66 in 10.0 mi ENE 18.4 mph - N/A   Mostly Cloudy
9:14 PM 42.8 °F 35.1 °F 33.8 °F 70% 30.66 in 10.0 mi ENE 16.1 mph - N/A   Overcast
9:34 PM 42.8 °F 34.5 °F 32.0 °F 66% 30.66 in 10.0 mi East 18.4 mph - N/A   Overcast
9:54 PM 42.8 °F 34.0 °F 33.8 °F 70% 30.66 in 10.0 mi ENE 20.7 mph - N/A   Overcast
10:14 PM 41.0 °F 30.9 °F 33.8 °F 76% 30.66 in 10.0 mi ENE 24.2 mph - N/A   Mostly Cloudy
10:34 PM 41.0 °F 31.4 °F 33.8 °F 76% 30.67 in 10.0 mi ENE 21.9 mph - N/A   Scattered Clouds
10:54 PM 41.0 °F 30.9 °F 33.8 °F 76% 30.67 in 10.0 mi ENE 24.2 mph - N/A   Overcast
11:14 PM 41.0 °F 30.9 °F 33.8 °F 76% 30.67 in 10.0 mi ENE 24.2 mph - N/A   Overcast
11:34 PM 41.0 °F 31.9 °F 33.8 °F 76% 30.68 in 10.0 mi ENE 19.6 mph - N/A Thunderstorm Overcast
11:54 PM 41.0 °F 31.1 °F 33.8 °F 76% 30.67 in 10.0 mi East 23.0 mph 31.1 mph N/A   Mostly Cloudy